createdAt,value
2023-02-14T00:00:22.383Z,17.80
2023-02-14T00:02:49.381Z,20.33
2023-02-14T00:05:16.337Z,11.47
2023-02-14T00:07:43.017Z,17.23
2023-02-14T00:10:11.450Z,17.30
2023-02-14T00:12:38.143Z,19.47
2023-02-14T00:15:05.319Z,19.57
2023-02-14T00:17:31.988Z,20.37
2023-02-14T00:19:58.694Z,14.57
2023-02-14T00:22:25.592Z,21.10
2023-02-14T00:24:52.229Z,25.17
2023-02-14T00:27:20.192Z,25.63
2023-02-14T00:29:46.865Z,27.63
2023-02-14T00:32:13.609Z,31.43
2023-02-14T00:34:40.806Z,22.73
2023-02-14T00:37:07.452Z,25.43
2023-02-14T00:39:34.177Z,26.00
2023-02-14T00:42:00.901Z,30.80
2023-02-14T00:44:28.998Z,29.00
2023-02-14T00:46:55.668Z,30.23
2023-02-14T00:49:22.607Z,28.57
2023-02-14T00:51:49.334Z,32.07
2023-02-14T00:54:15.982Z,22.03
2023-02-14T00:56:42.628Z,17.87
2023-02-14T00:59:09.325Z,18.27
2023-02-14T01:01:37.349Z,17.47
2023-02-14T01:04:04.429Z,20.00
2023-02-14T01:06:31.183Z,22.67
2023-02-14T01:08:57.822Z,16.13
2023-02-14T01:11:25.432Z,24.03
2023-02-14T01:13:54.463Z,19.80
2023-02-14T01:16:23.855Z,17.50
2023-02-14T01:18:52.624Z,24.23
2023-02-14T01:21:22.224Z,23.30
2023-02-14T01:23:51.531Z,17.63
2023-02-14T01:26:19.387Z,15.70
2023-02-14T01:28:46.420Z,18.73
2023-02-14T01:31:15.972Z,13.63
2023-02-14T01:33:44.306Z,21.03
2023-02-14T01:36:20.833Z,19.63
2023-02-14T01:38:47.957Z,20.90
2023-02-14T01:41:14.707Z,18.83
2023-02-14T01:43:56.830Z,18.17
2023-02-14T01:46:24.622Z,21.23
2023-02-14T01:48:53.484Z,16.20
2023-02-14T01:51:22.437Z,17.83
2023-02-14T01:53:51.872Z,17.43
2023-02-14T01:56:24.679Z,23.87
2023-02-14T01:58:54.330Z,17.53
2023-02-14T02:01:21.340Z,21.63
2023-02-14T02:03:51.339Z,19.67
2023-02-14T02:06:25.874Z,20.20
2023-02-14T02:09:02.792Z,19.13
2023-02-14T02:11:29.501Z,18.80
2023-02-14T02:13:56.201Z,17.63
2023-02-14T02:16:37.513Z,10.73
2023-02-14T02:19:36.260Z,15.87
2023-02-14T02:22:38.038Z,14.30
2023-02-14T02:25:15.431Z,12.27
2023-02-14T02:27:58.980Z,14.80
2023-02-14T02:30:56.000Z,12.33
2023-02-14T02:33:53.526Z,14.77
2023-02-14T02:37:02.429Z,12.23
2023-02-14T02:39:41.275Z,15.40
2023-02-14T02:42:19.809Z,15.07
2023-02-14T02:44:57.363Z,13.03
2023-02-14T02:47:30.707Z,16.43
2023-02-14T02:50:05.768Z,13.37
2023-02-14T02:52:40.374Z,15.73
2023-02-14T02:55:22.782Z,17.40
2023-02-14T02:57:52.896Z,12.10
2023-02-14T03:00:22.242Z,14.00
2023-02-14T03:02:52.506Z,16.43
2023-02-14T03:05:19.437Z,15.50
2023-02-14T03:07:49.275Z,18.33
2023-02-14T03:10:18.417Z,12.80
2023-02-14T03:13:28.148Z,17.73
2023-02-14T03:16:27.936Z,15.83
2023-02-14T03:19:18.580Z,18.97
2023-02-14T03:21:53.297Z,16.20
2023-02-14T03:24:27.924Z,18.77
2023-02-14T03:27:01.706Z,16.10
2023-02-14T03:29:36.828Z,16.20
2023-02-14T03:32:11.236Z,17.50
2023-02-14T03:34:45.226Z,15.43
2023-02-14T03:37:17.315Z,25.50
2023-02-14T03:39:54.674Z,21.90
2023-02-14T03:42:25.828Z,16.83
2023-02-14T03:44:54.228Z,17.10
2023-02-14T03:47:24.767Z,16.90
2023-02-14T03:49:55.237Z,15.77
2023-02-14T03:52:24.681Z,17.60
2023-02-14T03:54:55.446Z,16.57
2023-02-14T03:57:25.626Z,18.07
2023-02-14T03:59:53.155Z,16.30
2023-02-14T04:02:25.094Z,14.17
2023-02-14T04:04:53.758Z,18.57
2023-02-14T04:07:23.392Z,19.20
2023-02-14T04:09:52.357Z,17.33
2023-02-14T04:12:32.293Z,18.33
2023-02-14T04:15:04.005Z,18.13
2023-02-14T04:17:30.697Z,19.60
2023-02-14T04:19:57.362Z,15.33
2023-02-14T04:22:24.099Z,19.07
2023-02-14T04:24:52.153Z,18.73
2023-02-14T04:27:18.845Z,14.90
2023-02-14T04:29:47.462Z,21.07
2023-02-14T04:32:17.012Z,17.43
2023-02-14T04:34:43.840Z,21.07
2023-02-14T04:37:10.854Z,24.93
2023-02-14T04:39:38.111Z,24.50
2023-02-14T04:42:06.438Z,26.70
2023-02-14T04:44:33.472Z,28.17
2023-02-14T04:47:00.430Z,37.30
2023-02-14T04:49:27.130Z,46.70
2023-02-14T04:51:53.825Z,39.37
2023-02-14T04:54:20.484Z,101.70
2023-02-14T04:56:47.148Z,51.53
2023-02-14T04:59:15.510Z,57.90
2023-02-14T05:01:42.243Z,44.63
2023-02-14T05:04:09.408Z,50.10
2023-02-14T05:06:36.416Z,42.43
2023-02-14T05:09:03.246Z,78.70
2023-02-14T05:11:30.784Z,94.73
2023-02-14T05:13:57.476Z,90.27
2023-02-14T05:16:25.821Z,51.67
2023-02-14T05:18:52.702Z,57.23
2023-02-14T05:21:19.362Z,57.47
2023-02-14T05:23:46.036Z,67.73
2023-02-14T05:26:12.701Z,122.00
2023-02-14T05:28:39.447Z,117.90
2023-02-14T05:31:06.148Z,79.60
2023-02-14T05:33:34.205Z,97.67
2023-02-14T05:36:00.893Z,117.10
2023-02-14T05:38:27.584Z,189.00
2023-02-14T05:40:54.233Z,99.80
2023-02-14T05:43:21.174Z,21.77
2023-02-14T05:45:48.216Z,46.40
2023-02-14T05:48:15.078Z,93.23
2023-02-14T05:50:43.088Z,70.90
2023-02-14T05:53:09.733Z,42.93
2023-02-14T05:55:36.636Z,31.23
2023-02-14T05:58:03.764Z,54.23
2023-02-14T06:00:30.532Z,34.33
2023-02-14T06:02:57.205Z,80.83
2023-02-14T06:05:23.911Z,106.67
2023-02-14T06:07:51.890Z,86.37
2023-02-14T06:10:19.285Z,46.73
2023-02-14T06:12:46.170Z,42.53
2023-02-14T06:15:12.840Z,74.07
2023-02-14T06:17:39.558Z,49.43
2023-02-14T06:20:07.876Z,22.67
2023-02-14T06:22:34.559Z,18.60
2023-02-14T06:25:02.588Z,18.43
2023-02-14T06:27:29.442Z,38.90
2023-02-14T06:29:56.174Z,31.37
2023-02-14T06:32:22.942Z,16.37
2023-02-14T06:34:49.627Z,15.37
2023-02-14T06:37:16.310Z,14.53
2023-02-14T06:39:42.981Z,13.00
2023-02-14T06:42:11.011Z,36.70
2023-02-14T06:44:37.712Z,17.97
2023-02-14T06:47:04.426Z,43.30
2023-02-14T06:49:31.182Z,35.27
2023-02-14T06:51:57.893Z,23.10
2023-02-14T06:54:24.575Z,22.90
2023-02-14T06:56:51.332Z,38.33
2023-02-14T06:59:19.453Z,13.40
2023-02-14T07:01:46.165Z,24.90
2023-02-14T07:04:12.971Z,15.80
2023-02-14T07:06:39.695Z,22.10
2023-02-14T07:09:06.851Z,18.77
2023-02-14T07:11:33.535Z,50.90
2023-02-14T07:14:00.194Z,42.63
2023-02-14T07:16:28.419Z,54.37
2023-02-14T07:18:55.195Z,15.70
2023-02-14T07:21:21.966Z,23.00
2023-02-14T07:23:48.705Z,14.80
2023-02-14T07:26:15.506Z,20.33
2023-02-14T07:28:44.850Z,18.83
2023-02-14T07:31:12.049Z,18.70
2023-02-14T07:33:40.187Z,54.07
2023-02-14T07:36:08.268Z,21.77
2023-02-14T07:38:35.307Z,16.70
2023-02-14T07:41:02.647Z,17.83
2023-02-14T07:43:29.644Z,17.97
2023-02-14T07:45:56.596Z,20.93
2023-02-14T07:48:23.356Z,38.60
2023-02-14T07:50:51.409Z,21.77
2023-02-14T07:53:18.166Z,23.20
2023-02-14T07:55:49.099Z,22.57
2023-02-14T07:58:15.789Z,17.10
2023-02-14T08:00:42.492Z,23.00
2023-02-14T08:03:09.276Z,15.53
2023-02-14T08:05:36.107Z,16.90
2023-02-14T08:08:04.373Z,20.43
2023-02-14T08:10:31.211Z,17.97
2023-02-14T08:12:57.935Z,15.83
2023-02-14T08:15:24.654Z,17.13
2023-02-14T08:17:51.371Z,14.40
2023-02-14T08:20:18.553Z,25.37
2023-02-14T08:22:45.353Z,22.60
2023-02-14T08:25:13.446Z,27.63
2023-02-14T08:27:40.189Z,23.30
2023-02-14T08:30:08.154Z,20.60
2023-02-14T08:32:34.928Z,24.30
2023-02-14T08:35:01.782Z,23.47
2023-02-14T08:37:28.556Z,16.57
2023-02-14T08:39:55.284Z,21.10
2023-02-14T08:42:23.372Z,22.17
2023-02-14T08:44:50.129Z,21.13
2023-02-14T08:47:16.810Z,20.37
2023-02-14T08:49:43.857Z,19.90
2023-02-14T08:52:10.610Z,19.97
2023-02-14T08:54:37.367Z,17.50
2023-02-14T08:57:04.094Z,20.17
2023-02-14T08:59:32.179Z,31.53
2023-02-14T09:01:58.867Z,23.13
2023-02-14T09:04:25.865Z,31.33
2023-02-14T09:06:52.623Z,33.77
2023-02-14T09:09:19.337Z,19.10
2023-02-14T09:11:46.052Z,37.00
2023-02-14T09:14:12.789Z,35.13
2023-02-14T09:16:40.846Z,29.73
2023-02-14T09:19:07.621Z,32.17
2023-02-14T09:21:34.419Z,33.50
2023-02-14T09:24:01.165Z,39.27
2023-02-14T09:26:27.840Z,31.40
2023-02-14T09:28:56.081Z,30.97
2023-02-14T09:31:24.674Z,28.10
2023-02-14T09:33:52.765Z,30.47
2023-02-14T09:36:19.628Z,25.90
2023-02-14T09:38:46.870Z,24.07
2023-02-14T09:41:56.195Z,28.93
2023-02-14T09:44:29.146Z,26.27
2023-02-14T09:47:01.163Z,34.90
2023-02-14T09:49:33.934Z,35.13
2023-02-14T09:52:03.959Z,35.13
2023-02-14T09:54:34.746Z,34.63
2023-02-14T09:57:06.280Z,32.90
2023-02-14T09:59:39.629Z,33.07
2023-02-14T10:02:21.517Z,34.70
2023-02-14T10:04:59.087Z,37.00
2023-02-14T10:07:33.818Z,33.87
2023-02-14T10:10:06.974Z,30.83
2023-02-14T10:12:37.471Z,34.53
2023-02-14T10:15:12.412Z,36.33
2023-02-14T10:17:42.186Z,25.67
2023-02-14T10:20:21.114Z,29.30
2023-02-14T10:22:54.959Z,33.60
2023-02-14T10:25:26.102Z,35.53
2023-02-14T10:27:55.737Z,32.93
2023-02-14T10:30:24.006Z,36.80
2023-02-14T10:32:59.176Z,33.40
2023-02-14T10:35:33.549Z,34.23
2023-02-14T10:38:09.629Z,37.50
2023-02-14T10:40:54.331Z,37.47
2023-02-14T10:43:30.313Z,42.40
2023-02-14T10:46:06.429Z,40.77
2023-02-14T10:48:51.625Z,30.10
2023-02-14T10:51:24.498Z,33.93
2023-02-14T10:54:07.047Z,38.03
2023-02-14T10:56:38.135Z,35.10
2023-02-14T10:59:17.194Z,39.33
2023-02-14T11:01:44.814Z,36.60
2023-02-14T11:04:12.368Z,34.63
2023-02-14T11:06:40.554Z,38.77
2023-02-14T11:09:07.291Z,25.80
2023-02-14T11:11:39.918Z,32.13
2023-02-14T11:16:49.387Z,35.57
2023-02-14T11:19:21.604Z,34.57
2023-02-14T11:21:51.395Z,31.00
2023-02-14T11:24:20.208Z,30.23
2023-02-14T11:26:49.684Z,31.23
2023-02-14T11:29:23.367Z,29.00
2023-02-14T11:31:50.606Z,26.57
2023-02-14T11:34:34.263Z,34.33
2023-02-14T11:37:02.888Z,29.37
2023-02-14T11:39:31.969Z,30.03
2023-02-14T11:42:01.423Z,23.87
2023-02-14T11:44:29.518Z,26.40
2023-02-14T11:47:15.965Z,29.90
2023-02-14T11:49:54.657Z,33.63
2023-02-14T11:52:23.050Z,33.80
2023-02-14T11:54:49.863Z,30.83
2023-02-14T11:57:23.232Z,27.53
2023-02-14T11:59:53.138Z,30.30
2023-02-14T12:02:26.739Z,29.70
2023-02-14T12:04:57.531Z,34.10
2023-02-14T12:07:29.725Z,30.40
2023-02-14T12:10:22.275Z,23.67
2023-02-14T12:12:54.951Z,26.20
2023-02-14T12:15:34.750Z,34.60
2023-02-14T12:18:31.843Z,31.30
2023-02-14T12:21:04.316Z,26.23
2023-02-14T12:23:40.836Z,33.50
2023-02-14T12:26:17.697Z,27.87
2023-02-14T12:28:49.836Z,30.13
2023-02-14T12:31:17.185Z,31.30
2023-02-14T12:33:46.529Z,27.27
2023-02-14T12:36:27.011Z,24.20
2023-02-14T12:39:03.661Z,27.50
2023-02-14T12:41:38.321Z,28.00
2023-02-14T12:44:13.250Z,28.43
2023-02-14T12:46:58.704Z,24.97
2023-02-14T12:50:03.014Z,27.80
2023-02-14T12:52:53.193Z,28.90
2023-02-14T12:55:41.276Z,34.23
2023-02-14T12:58:24.726Z,27.43
2023-02-14T13:01:04.346Z,28.03
2023-02-14T13:04:03.632Z,26.60
2023-02-14T13:06:34.250Z,24.73
2023-02-14T13:09:13.830Z,25.30
2023-02-14T13:11:52.776Z,28.33
2023-02-14T13:14:35.182Z,28.07
2023-02-14T13:17:07.360Z,26.90
2023-02-14T13:19:42.321Z,29.20
2023-02-14T13:22:15.571Z,30.47
2023-02-14T13:24:44.699Z,24.77
2023-02-14T13:27:18.209Z,26.13
2023-02-14T13:29:49.053Z,27.50
2023-02-14T13:32:19.860Z,28.10
2023-02-14T13:34:48.211Z,27.17
2023-02-14T13:37:18.324Z,32.40
2023-02-14T13:39:48.450Z,25.23
2023-02-14T13:42:50.749Z,28.97
2023-02-14T13:45:50.734Z,25.27
2023-02-14T13:48:19.764Z,22.70
2023-02-14T13:50:52.518Z,26.10
2023-02-14T13:53:43.385Z,26.03
2023-02-14T13:56:33.687Z,27.00
2023-02-14T13:59:04.368Z,25.23
2023-02-14T14:01:35.815Z,23.57
2023-02-14T14:04:05.104Z,26.67
2023-02-14T14:07:18.066Z,22.00
2023-02-14T14:09:59.898Z,23.50
2023-02-14T14:12:44.703Z,23.63
2023-02-14T14:15:17.529Z,28.80
2023-02-14T14:17:46.953Z,28.00
2023-02-14T14:20:40.819Z,29.23
2023-02-14T14:23:30.814Z,26.97
2023-02-14T14:25:58.275Z,28.13
2023-02-14T14:28:28.039Z,25.20
2023-02-14T14:30:55.151Z,23.00
2023-02-14T14:33:28.052Z,23.60
2023-02-14T14:35:56.150Z,27.43
2023-02-14T14:38:23.805Z,30.20
2023-02-14T14:40:52.797Z,24.47
2023-02-14T14:43:26.306Z,23.30
2023-02-14T14:45:53.891Z,30.23
2023-02-14T14:48:27.852Z,24.70
2023-02-14T14:50:54.624Z,24.80
2023-02-14T14:53:24.746Z,25.13
2023-02-14T14:55:53.132Z,24.87
2023-02-14T14:58:36.713Z,26.93
2023-02-14T15:01:04.637Z,23.13
2023-02-14T15:03:33.127Z,28.17
2023-02-14T15:06:06.889Z,21.50
2023-02-14T15:08:33.892Z,24.90
2023-02-14T15:11:06.439Z,21.17
2023-02-14T15:13:38.448Z,28.73
2023-02-14T15:16:05.570Z,27.07
2023-02-14T15:18:32.432Z,25.87
2023-02-14T15:21:00.033Z,23.30
2023-02-14T15:23:27.004Z,23.43
2023-02-14T15:25:53.749Z,28.03
2023-02-14T15:28:30.147Z,29.07
2023-02-14T15:30:59.811Z,31.17
2023-02-14T15:33:28.031Z,21.87
2023-02-14T15:35:56.196Z,20.17
2023-02-14T15:38:23.751Z,26.60
2023-02-14T15:40:51.601Z,26.30
2023-02-14T15:43:28.036Z,25.13
2023-02-14T15:46:00.024Z,27.90
2023-02-14T15:48:28.824Z,25.03
2023-02-14T15:50:57.516Z,21.40
2023-02-14T15:53:34.575Z,23.10
2023-02-14T15:56:07.951Z,27.30
2023-02-14T15:58:35.647Z,29.27
2023-02-14T16:01:04.368Z,24.13
2023-02-14T16:03:34.943Z,26.13
2023-02-14T16:06:02.174Z,25.83
2023-02-14T16:08:31.848Z,21.10
2023-02-14T16:11:01.255Z,21.50
2023-02-14T16:13:33.972Z,23.27
2023-02-14T16:16:03.799Z,30.90
2023-02-14T16:18:36.394Z,23.43
2023-02-14T16:21:11.880Z,24.30
2023-02-14T16:23:38.912Z,22.00
2023-02-14T16:26:06.344Z,29.37
2023-02-14T16:28:33.836Z,30.60
2023-02-14T16:31:03.781Z,27.93
2023-02-14T16:33:34.385Z,27.70
2023-02-14T16:36:06.811Z,22.90
2023-02-14T16:38:36.453Z,31.90
2023-02-14T16:41:03.148Z,28.30
2023-02-14T16:43:29.813Z,22.90
2023-02-14T16:45:56.552Z,22.27
2023-02-14T16:48:24.644Z,22.83
2023-02-14T16:50:51.296Z,19.20
2023-02-14T16:53:25.237Z,32.27
2023-02-14T16:55:54.066Z,25.80
2023-02-14T16:58:22.938Z,22.20
2023-02-14T17:00:49.719Z,25.87
2023-02-14T17:03:16.436Z,27.70
2023-02-14T17:05:44.728Z,20.10
2023-02-14T17:08:12.918Z,27.20
2023-02-14T17:10:40.794Z,20.63
2023-02-14T17:13:08.585Z,24.20
2023-02-14T17:15:35.483Z,22.37
2023-02-14T17:18:07.071Z,19.90
2023-02-14T17:20:33.760Z,22.07
2023-02-14T17:23:01.938Z,23.63
2023-02-14T17:25:29.050Z,20.73
2023-02-14T17:27:55.736Z,23.57
2023-02-14T17:30:23.013Z,20.47
2023-02-14T17:32:49.687Z,22.30
2023-02-14T17:35:17.058Z,21.60
2023-02-14T17:37:43.787Z,18.77
2023-02-14T17:40:12.870Z,24.53
2023-02-14T17:42:39.539Z,19.90
2023-02-14T17:45:07.052Z,24.20
2023-02-14T17:47:34.472Z,19.40
2023-02-14T17:50:01.127Z,21.17
2023-02-14T17:52:27.815Z,22.90
2023-02-14T17:54:54.509Z,24.93
2023-02-14T17:57:22.483Z,20.27
2023-02-14T17:59:49.686Z,19.33
2023-02-14T18:02:16.332Z,17.87
2023-02-14T18:04:43.003Z,19.90
2023-02-14T18:07:09.680Z,19.00
2023-02-14T18:09:36.529Z,18.83
2023-02-14T18:12:04.098Z,20.10
2023-02-14T18:14:32.441Z,22.50
2023-02-14T18:16:59.100Z,25.67
2023-02-14T18:19:25.746Z,28.87
2023-02-14T18:21:52.466Z,26.13
2023-02-14T18:24:19.449Z,18.00
2023-02-14T18:26:46.150Z,21.80
2023-02-14T18:29:13.105Z,23.83
2023-02-14T18:31:43.741Z,21.30
2023-02-14T18:34:10.592Z,24.73
2023-02-14T18:36:39.048Z,20.43
2023-02-14T18:39:06.963Z,24.90
2023-02-14T18:41:34.101Z,24.47
2023-02-14T18:44:01.108Z,25.53
2023-02-14T18:46:29.939Z,24.87
2023-02-14T18:48:58.599Z,26.87
2023-02-14T18:51:26.536Z,27.70
2023-02-14T18:53:53.849Z,23.10
2023-02-14T18:56:22.137Z,24.60
2023-02-14T18:58:50.967Z,23.33
2023-02-14T19:01:19.635Z,30.90
2023-02-14T19:03:46.788Z,27.27
2023-02-14T19:06:15.392Z,31.83
2023-02-14T19:08:42.371Z,28.90
2023-02-14T19:11:10.825Z,26.03
2023-02-14T19:13:37.723Z,27.50
2023-02-14T19:16:09.754Z,21.37
2023-02-14T19:18:36.475Z,29.87
2023-02-14T19:21:09.147Z,25.87
2023-02-14T19:23:37.202Z,28.47
2023-02-14T19:26:09.706Z,25.30
2023-02-14T19:28:36.406Z,21.10
2023-02-14T19:31:03.605Z,22.67
2023-02-14T19:33:30.620Z,29.07
2023-02-14T19:36:01.004Z,27.67
2023-02-14T19:38:27.899Z,23.27
2023-02-14T19:40:55.931Z,28.97
2023-02-14T19:43:22.656Z,31.87
2023-02-14T19:45:49.786Z,27.50
2023-02-14T19:48:16.702Z,29.20
2023-02-14T19:50:43.676Z,22.97
2023-02-14T19:53:10.455Z,29.90
2023-02-14T19:55:37.155Z,23.80
2023-02-14T19:58:05.205Z,22.03
2023-02-14T20:00:31.928Z,29.70
2023-02-14T20:03:00.553Z,30.20
2023-02-14T20:05:27.271Z,26.97
2023-02-14T20:07:54.045Z,22.43
2023-02-14T20:10:21.253Z,30.20
2023-02-14T20:12:47.904Z,27.70
2023-02-14T20:15:16.137Z,25.67
2023-02-14T20:17:42.832Z,27.27
2023-02-14T20:20:10.596Z,32.67
2023-02-14T20:22:37.275Z,25.10
2023-02-14T20:25:04.499Z,31.77
2023-02-14T20:27:31.135Z,30.37
2023-02-14T20:29:57.826Z,27.70
2023-02-14T20:32:25.812Z,28.90
2023-02-14T20:34:52.736Z,26.73
2023-02-14T20:37:19.400Z,27.97
2023-02-14T20:39:46.224Z,32.53
2023-02-14T20:42:12.926Z,22.80
2023-02-14T20:44:39.712Z,30.37
2023-02-14T20:47:06.413Z,27.77
2023-02-14T20:49:34.417Z,22.93
2023-02-14T20:52:01.465Z,24.30
2023-02-14T20:54:29.210Z,20.00
2023-02-14T20:56:56.308Z,24.57
2023-02-14T20:59:23.041Z,34.57
2023-02-14T21:01:49.736Z,28.70
2023-02-14T21:04:16.467Z,24.93
2023-02-14T21:06:44.519Z,28.40
2023-02-14T21:09:11.225Z,24.60
2023-02-14T21:11:37.962Z,38.47
2023-02-14T21:14:04.665Z,28.70
2023-02-14T21:16:31.392Z,26.93
2023-02-14T21:18:59.532Z,27.70
2023-02-14T21:21:28.652Z,27.70
2023-02-14T21:23:56.704Z,31.63
2023-02-14T21:26:23.425Z,29.97
2023-02-14T21:28:50.091Z,25.30
2023-02-14T21:31:18.360Z,21.67
2023-02-14T21:33:45.064Z,35.43
2023-02-14T21:36:13.020Z,34.97
2023-02-14T21:38:40.400Z,27.73
2023-02-14T21:41:10.655Z,21.80
2023-02-14T21:43:39.730Z,24.03
2023-02-14T21:46:07.915Z,26.10
2023-02-14T21:48:34.837Z,28.13
2023-02-14T21:51:06.331Z,31.47
2023-02-14T21:53:34.422Z,34.73
2023-02-14T21:56:05.565Z,32.60
2023-02-14T21:58:33.582Z,29.90
2023-02-14T22:01:00.697Z,33.43
2023-02-14T22:03:27.597Z,29.87
2023-02-14T22:06:01.061Z,34.57
2023-02-14T22:08:27.833Z,27.57
2023-02-14T22:10:54.530Z,30.60
2023-02-14T22:13:21.282Z,35.80
2023-02-14T22:15:49.301Z,26.43
2023-02-14T22:18:16.439Z,25.03
2023-02-14T22:20:43.473Z,30.20
2023-02-14T22:23:10.247Z,40.93
2023-02-14T22:25:36.921Z,35.73
2023-02-14T22:28:03.600Z,37.00
2023-02-14T22:30:30.253Z,30.20
2023-02-14T22:32:58.254Z,30.60
2023-02-14T22:35:24.988Z,29.10
2023-02-14T22:37:51.660Z,27.03
2023-02-14T22:40:18.525Z,29.63
2023-02-14T22:42:45.207Z,30.47
2023-02-14T22:45:11.887Z,29.03
2023-02-14T22:47:38.553Z,41.40
2023-02-14T22:50:07.697Z,37.63
2023-02-14T22:52:34.724Z,39.03
2023-02-14T22:55:01.361Z,30.77
2023-02-14T22:57:28.044Z,27.70
2023-02-14T22:59:54.682Z,32.57
2023-02-14T23:02:21.348Z,29.10
2023-02-14T23:04:48.011Z,34.80
2023-02-14T23:07:16.048Z,32.33
2023-02-14T23:09:42.689Z,37.53
2023-02-14T23:12:09.348Z,34.70
2023-02-14T23:14:36.041Z,33.73
2023-02-14T23:17:03.592Z,37.43
2023-02-14T23:19:32.001Z,32.90
2023-02-14T23:22:02.197Z,45.43
2023-02-14T23:24:30.196Z,35.27
2023-02-14T23:26:56.897Z,33.83
2023-02-14T23:29:23.704Z,31.90
2023-02-14T23:31:50.521Z,28.80
2023-02-14T23:34:17.503Z,31.40
2023-02-14T23:36:44.328Z,25.37
2023-02-14T23:39:11.321Z,27.97
2023-02-14T23:41:39.362Z,26.50
2023-02-14T23:44:06.120Z,30.90
2023-02-14T23:46:32.805Z,35.13
2023-02-14T23:48:59.520Z,35.67
2023-02-14T23:51:26.199Z,33.40
2023-02-14T23:53:53.407Z,39.03
2023-02-14T23:56:20.134Z,31.57
2023-02-14T23:58:48.137Z,33.70
